Time;durP1;ratioP1;P1;durP2;ratioP2;P2;SDS_P1;SDS_P2;PMS_P1;PMS_P2;Temp;Humidity;BMP_temperature;BMP_pressure;BME280_temperature;BME280_humidity;BME280_pressure;Samples;Min_cycle;Max_cycle;Signal;HPM_P1;HPM_P2
2022/07/02 00:01:19;;;;;;;5.97;4.53;;;;;;;23.77;69.10;100292.56;4955148;29;20401;-74
2022/07/02 00:03:51;;;;;;;8.75;5.10;;;;;;;23.75;69.41;100292.75;4955073;29;20139;-73
2022/07/02 00:06:21;;;;;;;9.63;5.07;;;;;;;23.74;69.76;100272.00;4955144;29;20044;-75
2022/07/02 00:08:52;;;;;;;8.20;4.47;;;;;;;23.65;69.99;100278.50;4937953;29;20548;-75
2022/07/02 00:11:21;;;;;;;6.53;4.55;;;;;;;23.70;70.01;100303.31;4954877;29;20070;-75
2022/07/02 00:13:50;;;;;;;6.97;4.55;;;;;;;23.65;70.28;100300.28;4955061;28;20559;-70
2022/07/02 00:16:19;;;;;;;7.07;4.53;;;;;;;23.64;70.34;100285.81;4958986;29;20062;-76
2022/07/02 00:18:47;;;;;;;11.05;4.55;;;;;;;23.56;70.94;100295.84;4958797;29;20102;-71
2022/07/02 00:21:16;;;;;;;6.70;5.40;;;;;;;23.40;71.86;100270.34;4958852;29;20054;-75
2022/07/02 00:23:46;;;;;;;8.73;4.90;;;;;;;23.39;72.52;100279.56;4958483;29;20514;-74
2022/07/02 00:26:25;;;;;;;7.18;4.30;;;;;;;23.30;73.66;100275.16;4959012;29;20054;-76
2022/07/02 00:29:01;;;;;;;9.90;4.60;;;;;;;23.29;73.88;100291.66;4958951;29;20055;-76
2022/07/02 00:31:30;;;;;;;8.00;4.75;;;;;;;23.19;74.92;100277.41;4958817;29;20240;-77
2022/07/02 00:33:59;;;;;;;7.20;4.10;;;;;;;23.14;76.18;100259.69;4958534;29;20074;-75
2022/07/02 00:36:28;;;;;;;14.43;5.10;;;;;;;23.07;78.69;100247.00;4941580;29;20048;-77
2022/07/02 00:38:58;;;;;;;6.85;4.63;;;;;;;22.96;82.20;100234.56;4958738;29;20043;-77
2022/07/02 00:41:28;;;;;;;9.82;5.30;;;;;;;22.74;89.57;100229.81;4958649;29;20047;-77
2022/07/02 00:43:58;;;;;;;10.48;5.35;;;;;;;22.56;100.00;100210.97;4958683;29;20043;-78
2022/07/02 00:46:28;;;;;;;9.73;5.03;;;;;;;22.42;100.00;100208.94;4958695;29;20126;-76
2022/07/02 00:48:56;;;;;;;9.32;5.18;;;;;;;22.26;100.00;100216.06;4958479;29;20053;-75
2022/07/02 00:51:25;;;;;;;9.90;5.10;;;;;;;22.26;100.00;100210.63;4958967;29;20500;-75
2022/07/02 00:53:54;;;;;;;10.40;5.13;;;;;;;22.14;100.00;100217.41;4958548;29;20082;-75
2022/07/02 00:56:23;;;;;;;8.02;4.80;;;;;;;22.12;100.00;100213.16;4958626;29;20152;-75
2022/07/02 00:58:52;;;;;;;6.65;4.53;;;;;;;22.01;100.00;100214.31;4958298;29;20047;-75
2022/07/02 01:01:20;;;;;;;6.55;4.80;;;;;;;22.13;100.00;100217.56;4958276;29;20043;-75
2022/07/02 01:03:50;;;;;;;6.30;4.35;;;;;;;22.02;100.00;100223.31;4958367;29;20126;-75
2022/07/02 01:06:20;;;;;;;8.93;4.57;;;;;;;22.03;100.00;100225.00;4958354;29;20043;-75
2022/07/02 01:11:38;;;;;;;7.10;4.50;;;;;;;22.02;100.00;100232.28;4958129;29;20051;-79
2022/07/02 01:14:07;;;;;;;5.72;4.43;;;;;;;22.03;100.00;100222.28;4958199;29;20046;-74
2022/07/02 01:16:35;;;;;;;5.78;3.80;;;;;;;21.90;100.00;100223.59;4958282;29;20050;-73
2022/07/02 01:19:05;;;;;;;8.10;4.30;;;;;;;21.95;100.00;100217.69;4958153;29;20050;-74
2022/07/02 01:21:33;;;;;;;7.20;4.18;;;;;;;21.90;100.00;100230.88;4957922;29;20047;-72
2022/07/02 01:24:03;;;;;;;7.50;4.03;;;;;;;21.85;100.00;100230.53;4957629;29;20047;-72
2022/07/02 01:26:31;;;;;;;6.70;4.00;;;;;;;21.61;100.00;100243.00;4957419;28;20493;-75
2022/07/02 01:29:00;;;;;;;7.70;3.72;;;;;;;21.49;100.00;100252.47;4958071;29;20126;-74
2022/07/02 01:31:28;;;;;;;5.20;3.45;;;;;;;21.48;100.00;100248.03;4957744;29;20051;-75
2022/07/02 01:33:58;;;;;;;7.13;3.85;;;;;;;21.41;100.00;100268.69;4957663;29;20496;-73
2022/07/02 01:36:26;;;;;;;7.47;3.78;;;;;;;21.38;100.00;100263.59;4957753;29;20051;-72
2022/07/02 01:38:54;;;;;;;6.32;3.55;;;;;;;21.37;100.00;100262.75;4957191;29;20139;-72
2022/07/02 01:41:42;;;;;;;4.45;3.10;;;;;;;21.36;100.00;100287.34;4957779;29;20062;-73
2022/07/02 01:44:10;;;;;;;4.90;3.28;;;;;;;21.21;100.00;100276.19;4957952;29;20044;-73
2022/07/02 01:46:38;;;;;;;6.15;3.38;;;;;;;21.19;100.00;100290.91;4957657;29;20495;-78
2022/07/02 01:49:07;;;;;;;5.90;3.15;;;;;;;21.13;100.00;100282.44;4957683;29;20051;-74
2022/07/02 01:51:35;;;;;;;4.43;2.85;;;;;;;20.99;100.00;100277.56;4957786;29;20043;-73
2022/07/02 01:54:04;;;;;;;7.13;3.60;;;;;;;20.98;100.00;100294.84;4957815;29;20043;-73
2022/07/02 01:56:34;;;;;;;6.13;3.50;;;;;;;20.97;100.00;100282.31;4957273;29;20099;-73
2022/07/02 01:59:02;;;;;;;5.25;3.08;;;;;;;20.95;100.00;100289.75;4957206;29;20057;-73
2022/07/02 02:01:31;;;;;;;5.13;2.88;;;;;;;20.82;100.00;100289.28;4957487;29;20489;-72
2022/07/02 02:03:59;;;;;;;5.68;2.65;;;;;;;20.71;100.00;100281.41;4957016;29;20049;-73
2022/07/02 02:06:28;;;;;;;4.75;2.70;;;;;;;20.73;100.00;100274.81;4957494;29;20039;-73
2022/07/02 02:08:56;;;;;;;6.20;2.80;;;;;;;20.55;100.00;100261.28;4956955;29;20051;-74
2022/07/02 02:11:24;;;;;;;6.82;2.30;;;;;;;20.45;100.00;100255.09;4957521;29;20075;-73
2022/07/02 02:13:57;;;;;;;3.15;2.05;;;;;;;20.46;100.00;100258.66;4956880;29;20444;-72
2022/07/02 02:16:26;;;;;;;;;;;;;;;20.36;100.00;100250.59;4957302;29;20497;-73
2022/07/02 02:18:56;;;;;;;3.85;2.08;;;;;;;20.31;100.00;100242.09;4956876;29;20291;-73
2022/07/02 02:21:25;;;;;;;5.82;2.17;;;;;;;20.30;100.00;100218.72;4956865;29;20053;-73
2022/07/02 02:23:53;;;;;;;3.70;2.30;;;;;;;20.32;100.00;100218.56;4956244;29;20409;-74
2022/07/02 02:26:22;;;;;;;5.35;2.17;;;;;;;20.26;100.00;100218.16;4956436;29;20050;-73
2022/07/02 02:28:50;;;;;;;3.40;2.08;;;;;;;20.15;100.00;100204.00;4956670;29;20422;-73
2022/07/02 02:31:20;;;;;;;2.97;2.08;;;;;;;20.11;100.00;100175.56;4939521;29;20055;-72
2022/07/02 02:33:48;;;;;;;3.17;1.65;;;;;;;19.96;100.00;100205.00;4956392;29;20043;-74
2022/07/02 02:36:17;;;;;;;4.03;2.03;;;;;;;19.99;100.00;100210.13;4939585;29;20457;-72
2022/07/02 02:38:46;;;;;;;3.35;1.85;;;;;;;20.00;100.00;100220.81;4955341;28;20047;-76
2022/07/02 02:41:15;;;;;;;3.63;1.80;;;;;;;20.00;100.00;100238.91;4956398;29;20045;-75
2022/07/02 02:43:43;;;;;;;2.45;1.80;;;;;;;19.87;100.00;100244.66;4956263;29;20043;-76
2022/07/02 02:46:11;;;;;;;3.75;1.85;;;;;;;19.89;100.00;100239.97;4956680;29;20046;-75
2022/07/02 02:48:41;;;;;;;4.82;1.98;;;;;;;19.89;100.00;100239.13;4956452;29;20188;-75
2022/07/02 02:51:11;;;;;;;3.15;1.65;;;;;;;19.84;100.00;100250.41;4956549;29;20043;-73
2022/07/02 02:53:42;;;;;;;5.25;1.80;;;;;;;19.73;100.00;100243.34;4956799;29;20047;-73
2022/07/02 02:56:11;;;;;;;2.50;1.50;;;;;;;19.87;100.00;100260.06;4956435;29;20071;-75
2022/07/02 02:58:39;;;;;;;3.25;1.60;;;;;;;19.77;100.00;100265.53;4956527;29;20051;-76
2022/07/02 03:01:07;;;;;;;3.58;1.90;;;;;;;19.72;100.00;100266.00;4956447;29;20067;-77
2022/07/02 03:03:35;;;;;;;3.67;1.88;;;;;;;19.69;100.00;100265.44;4956189;29;20039;-76
2022/07/02 03:06:05;;;;;;;3.80;1.70;;;;;;;19.63;100.00;100274.16;4956038;29;20476;-75
2022/07/02 03:08:33;;;;;;;6.88;1.85;;;;;;;19.55;100.00;100292.97;4956394;29;20051;-75
2022/07/02 03:11:01;;;;;;;3.95;1.80;;;;;;;19.32;100.00;100277.09;4955799;29;20043;-75
2022/07/02 03:13:29;;;;;;;3.63;1.85;;;;;;;19.42;100.00;100285.19;4956346;29;20106;-75
2022/07/02 03:15:58;;;;;;;2.15;1.58;;;;;;;19.36;100.00;100289.31;4955783;29;20043;-76
2022/07/02 03:18:26;;;;;;;2.40;1.60;;;;;;;19.31;100.00;100307.84;4938637;29;20047;-75
2022/07/02 03:20:55;;;;;;;6.70;1.75;;;;;;;19.14;100.00;100314.00;4955570;29;20044;-75
2022/07/02 03:23:26;;;;;;;4.55;1.80;;;;;;;19.12;100.00;100310.63;4955658;29;20481;-74
2022/07/02 03:25:54;;;;;;;2.55;1.55;;;;;;;19.28;100.00;100300.03;4938542;29;20047;-75
2022/07/02 03:28:23;;;;;;;5.68;2.33;;;;;;;19.17;100.00;100321.81;4955614;29;20063;-75
2022/07/02 03:30:51;;;;;;;4.15;2.00;;;;;;;19.12;100.00;100330.38;4955542;29;20477;-75
2022/07/02 03:33:19;;;;;;;3.42;1.77;;;;;;;19.14;100.00;100344.59;4955564;29;20043;-74
2022/07/02 03:35:48;;;;;;;4.53;2.10;;;;;;;19.22;100.00;100343.88;4955532;29;20043;-75
2022/07/02 03:38:16;;;;;;;3.40;1.98;;;;;;;19.37;100.00;100333.44;4955894;29;20043;-75
2022/07/02 03:40:45;;;;;;;5.57;1.90;;;;;;;19.78;100.00;100343.00;4955673;29;20129;-75
2022/07/02 03:43:13;;;;;;;3.53;1.90;;;;;;;20.14;100.00;100322.31;4955679;29;20051;-75
2022/07/02 03:45:41;;;;;;;3.17;2.00;;;;;;;20.46;99.82;100329.09;4955599;29;20051;-77
2022/07/02 03:48:10;;;;;;;4.45;2.28;;;;;;;20.60;98.81;100347.53;4955319;29;20046;-75
2022/07/02 03:50:40;;;;;;;4.68;2.00;;;;;;;20.74;97.17;100356.97;4955609;28;20063;-75
2022/07/02 03:53:08;;;;;;;5.68;2.28;;;;;;;21.04;94.12;100348.47;4955749;29;20047;-75
2022/07/02 03:55:36;;;;;;;2.90;2.00;;;;;;;21.39;89.23;100363.81;4955878;29;20066;-76
2022/07/02 03:58:06;;;;;;;3.65;2.00;;;;;;;21.21;90.04;100370.25;4958669;29;20085;-76
2022/07/02 04:00:34;;;;;;;3.40;1.83;;;;;;;21.63;86.50;100365.84;4961650;29;20050;-73
2022/07/02 04:03:03;;;;;;;3.90;1.90;;;;;;;21.96;83.26;100371.44;4969735;29;20047;-75
2022/07/02 04:05:31;;;;;;;3.25;2.20;;;;;;;22.02;82.42;100365.38;4970800;29;20531;-72
2022/07/02 04:07:59;;;;;;;3.17;1.85;;;;;;;22.35;78.92;100370.94;4958996;29;20134;-73
2022/07/02 04:10:27;;;;;;;5.28;2.13;;;;;;;22.25;79.49;100366.50;4938101;29;20047;-73
2022/07/02 04:12:56;;;;;;;4.30;2.20;;;;;;;22.25;79.00;100382.81;4954875;29;20054;-71
2022/07/02 04:15:25;;;;;;;4.47;2.20;;;;;;;22.88;74.70;100377.91;4955183;29;20047;-72
2022/07/02 04:17:53;;;;;;;3.85;2.10;;;;;;;22.49;75.98;100379.31;4955020;29;20055;-71
2022/07/02 04:20:22;;;;;;;4.55;2.20;;;;;;;22.56;75.61;100390.38;4955050;29;20051;-72
2022/07/02 04:22:50;;;;;;;3.05;1.90;;;;;;;22.98;72.89;100397.63;4954667;29;20405;-74
2022/07/02 04:25:18;;;;;;;5.47;2.10;;;;;;;23.13;71.29;100404.06;4954994;29;20118;-73
2022/07/02 04:27:47;;;;;;;3.30;2.20;;;;;;;23.39;69.67;100410.19;4954928;29;20059;-73
2022/07/02 04:30:15;;;;;;;3.78;2.38;;;;;;;23.99;66.79;100407.03;4954876;29;20051;-71
2022/07/02 04:32:44;;;;;;;4.35;2.30;;;;;;;24.05;65.15;100415.56;4954803;29;20048;-72
2022/07/02 04:35:13;;;;;;;3.35;2.13;;;;;;;23.91;65.49;100415.22;4954503;29;20043;-72
2022/07/02 04:37:41;;;;;;;3.28;2.00;;;;;;;24.42;63.62;100417.66;4937515;29;20054;-72
2022/07/02 04:40:09;;;;;;;2.92;2.00;;;;;;;24.47;63.21;100418.78;4954440;29;20065;-70
2022/07/02 04:42:38;;;;;;;4.13;2.30;;;;;;;24.16;63.79;100407.00;4954967;29;20142;-69
2022/07/02 04:45:08;;;;;;;4.85;2.10;;;;;;;23.39;66.77;100415.63;4954599;29;20047;-70
2022/07/02 04:47:36;;;;;;;4.63;2.30;;;;;;;22.77;71.73;100420.66;4954803;29;20122;-71
2022/07/02 04:50:06;;;;;;;3.70;2.30;;;;;;;23.03;70.55;100423.28;4954370;29;20188;-72
2022/07/02 04:52:34;;;;;;;4.32;2.20;;;;;;;24.47;63.65;100429.69;4954968;29;20520;-72
2022/07/02 04:55:02;;;;;;;5.28;2.33;;;;;;;25.31;59.56;100436.19;4954555;29;20477;-72
2022/07/02 04:57:31;;;;;;;3.80;2.10;;;;;;;24.95;59.37;100435.91;4954697;29;20469;-72
2022/07/02 04:59:59;;;;;;;4.53;2.35;;;;;;;24.50;61.46;100451.16;4954425;29;20098;-75
2022/07/02 05:02:27;;;;;;;4.90;2.35;;;;;;;23.68;64.42;100447.81;4957229;29;20071;-75
2022/07/02 05:04:55;;;;;;;3.53;2.50;;;;;;;23.62;66.17;100455.81;4957951;29;20043;-76
2022/07/02 05:07:25;;;;;;;3.88;2.53;;;;;;;24.15;63.54;100457.06;4958771;29;20481;-78
2022/07/02 05:09:58;;;;;;;3.50;2.22;;;;;;;24.92;60.08;100463.56;4958190;29;20054;-77
2022/07/02 05:12:27;;;;;;;5.30;2.17;;;;;;;24.85;59.37;100470.75;4958124;29;20413;-78
2022/07/02 05:14:55;;;;;;;3.83;2.10;;;;;;;25.64;56.91;100491.34;4957895;29;20130;-78
2022/07/02 05:17:23;;;;;;;4.63;2.10;;;;;;;24.93;59.04;100495.25;4957718;29;20058;-76
2022/07/02 05:19:51;;;;;;;4.55;2.30;;;;;;;25.39;57.29;100503.53;4957772;29;20047;-76
2022/07/02 05:22:19;;;;;;;3.67;2.33;;;;;;;25.44;56.92;100506.53;4957754;29;20050;-71
2022/07/02 05:24:49;;;;;;;3.67;2.25;;;;;;;25.58;56.56;100502.19;4957742;29;20047;-72
2022/07/02 05:27:17;;;;;;;3.63;2.22;;;;;;;25.80;56.01;100500.47;4957638;29;20063;-73
2022/07/02 05:29:45;;;;;;;4.47;2.40;;;;;;;26.02;55.03;100521.44;4957808;29;20043;-75
2022/07/02 05:32:17;;;;;;;3.75;2.35;;;;;;;26.17;54.53;100511.38;4957366;29;20047;-75
2022/07/02 05:34:45;;;;;;;4.40;2.35;;;;;;;26.19;53.92;100514.78;4957863;29;20054;-75
2022/07/02 05:37:13;;;;;;;5.47;2.40;;;;;;;25.95;54.91;100531.41;4957465;29;20079;-76
2022/07/02 05:39:41;;;;;;;4.05;2.20;;;;;;;26.25;53.60;100527.69;4957602;29;20071;-76
2022/07/02 05:42:11;;;;;;;3.78;2.47;;;;;;;26.40;53.22;100525.00;4957188;29;20428;-73
2022/07/02 05:44:39;;;;;;;3.78;2.42;;;;;;;26.05;53.54;100542.91;4957317;29;20145;-75
2022/07/02 05:47:07;;;;;;;3.97;2.40;;;;;;;25.54;56.02;100539.06;4956986;29;20044;-76
2022/07/02 05:49:36;;;;;;;4.25;2.72;;;;;;;25.98;54.33;100535.66;4957379;29;20046;-74
2022/07/02 05:52:05;;;;;;;6.05;2.70;;;;;;;25.94;54.08;100540.63;4957186;29;20047;-74
2022/07/02 05:54:33;;;;;;;4.82;2.53;;;;;;;25.80;54.57;100534.13;4957191;29;20044;-76
2022/07/02 05:57:01;;;;;;;7.38;2.83;;;;;;;25.90;53.99;100547.53;4956996;29;20126;-75
2022/07/02 05:59:31;;;;;;;3.60;2.35;;;;;;;25.55;55.83;100547.06;4957585;29;20457;-75
2022/07/02 06:01:59;;;;;;;4.30;2.67;;;;;;;26.72;52.03;100542.88;4956851;29;20054;-78
2022/07/02 06:04:27;;;;;;;5.15;2.33;;;;;;;26.91;51.11;100540.59;4956759;29;20480;-77
2022/07/02 06:09:41;;;;;;;6.63;2.80;;;;;;;27.60;48.65;100538.22;4956904;29;20039;-71
2022/07/02 06:12:10;;;;;;;4.20;2.90;;;;;;;26.78;50.90;100544.88;4939205;29;20493;-70
2022/07/02 06:14:40;;;;;;;4.55;2.42;;;;;;;27.53;49.63;100531.88;4944613;29;20489;-74
2022/07/02 06:17:10;;;;;;;3.50;2.43;;;;;;;26.22;52.87;100552.66;4921608;29;20078;-75
2022/07/02 06:19:39;;;;;;;4.68;2.50;;;;;;;27.50;49.32;100537.72;4940114;29;20052;-72
2022/07/02 06:22:07;;;;;;;5.80;2.67;;;;;;;26.46;52.11;100534.34;4948776;29;20040;-71
2022/07/02 06:24:35;;;;;;;4.80;2.67;;;;;;;26.83;51.14;100538.84;4945230;29;20039;-71
2022/07/02 06:27:05;;;;;;;3.80;2.60;;;;;;;26.99;50.70;100535.88;4936514;29;20541;-67
2022/07/02 06:29:33;;;;;;;4.32;2.40;;;;;;;27.50;49.45;100529.50;4938891;29;20079;-73
2022/07/02 06:32:03;;;;;;;5.75;2.78;;;;;;;26.55;51.66;100532.34;4949569;29;20055;-68
2022/07/02 06:34:31;;;;;;;5.00;2.80;;;;;;;28.06;47.58;100533.19;4946353;29;20047;-73
2022/07/02 06:36:59;;;;;;;6.18;2.90;;;;;;;27.89;47.73;100549.09;4941794;29;20089;-66
2022/07/02 06:39:28;;;;;;;5.35;2.63;;;;;;;27.76;47.77;100543.50;4934890;29;20051;-69
2022/07/02 06:44:42;;;;;;;3.78;2.80;;;;;;;27.20;49.20;100537.81;4936089;29;20058;-71
2022/07/02 06:47:12;;;;;;;4.65;2.58;;;;;;;27.26;49.32;100539.81;4951372;29;20103;-72
2022/07/02 06:49:44;;;;;;;4.80;2.60;;;;;;;27.28;49.87;100537.72;4952181;29;20437;-71
2022/07/02 06:52:16;;;;;;;4.22;2.63;;;;;;;27.16;49.31;100552.97;4944091;29;20051;-80
2022/07/02 06:54:45;;;;;;;4.22;2.60;;;;;;;28.03;47.08;100544.56;4943533;29;20055;-72
2022/07/02 06:57:13;;;;;;;5.78;2.67;;;;;;;27.43;48.21;100543.16;4952173;29;20520;-72
2022/07/02 06:59:42;;;;;;;5.65;2.70;;;;;;;27.73;47.62;100549.38;4939568;29;20053;-72
2022/07/02 07:02:12;;;;;;;5.35;2.80;;;;;;;27.52;48.36;100546.63;4947801;29;20055;-70
2022/07/02 07:04:42;;;;;;;4.68;2.60;;;;;;;27.44;48.80;100544.00;4947132;29;20055;-71
2022/07/02 07:07:11;;;;;;;5.82;2.80;;;;;;;27.05;49.43;100567.16;4922719;29;20058;-71
2022/07/02 07:09:40;;;;;;;4.03;2.90;;;;;;;25.74;53.83;100561.31;4951821;29;20489;-70
2022/07/02 07:12:08;;;;;;;4.50;3.00;;;;;;;25.65;54.21;100552.28;4942577;29;20051;-71
2022/07/02 07:14:37;;;;;;;4.38;2.55;;;;;;;25.50;55.76;100565.91;4944129;29;20078;-70
2022/07/02 07:17:06;;;;;;;3.53;2.47;;;;;;;25.88;54.49;100568.72;4949757;29;20114;-73
2022/07/02 07:19:35;;;;;;;5.97;2.78;;;;;;;25.45;55.18;100573.78;4939035;29;20044;-72
2022/07/02 07:22:04;;;;;;;6.38;3.10;;;;;;;25.67;55.19;100572.97;4948339;29;20398;-71
2022/07/02 07:24:32;;;;;;;4.20;2.80;;;;;;;25.85;53.93;100577.25;4945402;29;20065;-71
2022/07/02 07:27:01;;;;;;;7.53;2.90;;;;;;;25.96;54.16;100576.81;4954597;29;20050;-72
2022/07/02 07:29:29;;;;;;;4.15;2.75;;;;;;;25.91;54.12;100577.38;4939281;29;20044;-71
2022/07/02 07:31:57;;;;;;;5.82;3.15;;;;;;;25.46;54.91;100591.00;4948946;29;20421;-73
2022/07/02 07:34:25;;;;;;;4.85;2.70;;;;;;;25.78;54.20;100593.56;4944765;29;20043;-80
2022/07/02 07:36:55;;;;;;;7.03;3.10;;;;;;;25.94;53.89;100592.56;4941411;29;20075;-73
2022/07/02 07:39:24;;;;;;;4.28;3.00;;;;;;;25.81;53.99;100578.69;4936683;29;20131;-74
2022/07/02 07:41:52;;;;;;;4.18;2.90;;;;;;;25.94;53.71;100585.22;4949687;29;20063;-69
2022/07/02 07:44:20;;;;;;;8.48;3.15;;;;;;;25.64;54.58;100581.50;4925957;29;20062;-69
2022/07/02 07:46:48;;;;;;;5.72;3.33;;;;;;;25.41;54.95;100588.84;4947465;29;20039;-71
2022/07/02 07:49:17;;;;;;;5.03;3.30;;;;;;;25.52;54.96;100593.88;4938657;29;20529;-72
2022/07/02 07:51:45;;;;;;;6.28;3.17;;;;;;;25.62;54.53;100586.28;4932877;29;20450;-70
2022/07/02 07:54:15;;;;;;;4.90;2.97;;;;;;;25.69;55.00;100591.88;4926054;29;20106;-69
2022/07/02 07:56:43;;;;;;;6.63;3.10;;;;;;;25.91;54.02;100585.59;4942666;29;20144;-72
2022/07/02 07:59:11;;;;;;;7.32;3.30;;;;;;;26.37;53.05;100590.13;4950267;29;20480;-70
2022/07/02 08:01:40;;;;;;;5.60;3.03;;;;;;;25.73;54.25;100581.47;4938251;29;20464;-71
2022/07/02 08:04:08;;;;;;;4.82;2.92;;;;;;;25.62;54.84;100591.75;4947125;29;20043;-74
2022/07/02 08:06:36;;;;;;;7.05;3.60;;;;;;;26.01;54.21;100590.81;4945714;29;20043;-69
2022/07/02 08:09:04;;;;;;;5.93;2.88;;;;;;;26.02;53.22;100597.13;4939788;29;20048;-77
2022/07/02 08:11:34;;;;;;;5.28;3.03;;;;;;;26.16;53.01;100591.69;4953345;29;20121;-72
2022/07/02 08:14:02;;;;;;;5.85;2.88;;;;;;;25.57;53.61;100594.16;4947687;29;20055;-71
2022/07/02 08:16:30;;;;;;;6.50;2.85;;;;;;;25.62;54.04;100586.28;4944825;29;20043;-70
2022/07/02 08:18:59;;;;;;;7.45;3.05;;;;;;;25.59;54.35;100589.41;4940252;29;20119;-74
2022/07/02 08:21:27;;;;;;;4.80;3.13;;;;;;;26.07;54.12;100590.06;4950887;29;20150;-71
2022/07/02 08:23:56;;;;;;;5.82;3.50;;;;;;;26.37;51.87;100609.28;4940162;29;20039;-71
2022/07/02 08:26:24;;;;;;;4.68;3.05;;;;;;;26.14;52.32;100585.53;4944839;29;20047;-70
2022/07/02 08:28:54;;;;;;;6.60;3.03;;;;;;;25.93;53.67;100585.41;4947127;29;20067;-72
2022/07/02 08:31:22;;;;;;;8.40;3.30;;;;;;;26.17;52.54;100587.94;4937011;29;20083;-71
2022/07/02 08:33:50;;;;;;;6.82;3.55;;;;;;;25.93;53.13;100593.59;4939198;29;20042;-70
2022/07/02 08:36:18;;;;;;;7.78;3.50;;;;;;;26.20;52.42;100590.28;4946490;28;20054;-73
2022/07/02 08:38:47;;;;;;;8.27;3.13;;;;;;;26.22;52.11;100590.94;4950217;29;20461;-69
2022/07/02 08:41:17;;;;;;;5.07;3.10;;;;;;;26.20;51.72;100584.81;4941745;29;20055;-75
2022/07/02 08:43:49;;;;;;;7.75;3.20;;;;;;;26.53;52.03;100581.75;4935780;29;20390;-70
2022/07/02 08:46:20;;;;;;;8.70;3.28;;;;;;;26.73;50.86;100582.91;4946595;29;20467;-71
2022/07/02 08:48:51;;;;;;;6.10;3.63;;;;;;;26.85;51.14;100593.38;4944774;29;20107;-71
2022/07/02 08:51:22;;;;;;;6.97;3.50;;;;;;;26.85;50.12;100587.91;4954139;29;20401;-72
2022/07/02 08:53:50;;;;;;;5.07;3.40;;;;;;;26.75;50.09;100594.53;4942531;29;20075;-74
2022/07/02 08:56:19;;;;;;;4.70;3.47;;;;;;;26.82;49.61;100584.50;4949065;29;20039;-72
2022/07/02 08:58:49;;;;;;;4.90;2.88;;;;;;;26.82;49.92;100579.03;4950107;29;20428;-67
2022/07/02 09:01:19;;;;;;;7.05;3.60;;;;;;;26.75;49.53;100589.03;4941802;29;20048;-73
2022/07/02 09:03:50;;;;;;;5.57;3.20;;;;;;;26.75;49.92;100600.00;4952659;29;20043;-70
2022/07/02 09:06:19;;;;;;;5.10;3.35;;;;;;;26.55;50.48;100589.81;4942695;29;20055;-75
2022/07/02 09:08:47;;;;;;;6.15;3.38;;;;;;;26.80;50.60;100591.19;4944578;29;20051;-70
2022/07/02 09:11:16;;;;;;;5.70;3.60;;;;;;;26.99;49.84;100584.28;4921252;29;20052;-71
2022/07/02 09:13:45;;;;;;;6.65;3.30;;;;;;;27.07;48.85;100585.06;4953290;29;20106;-70
2022/07/02 09:16:14;;;;;;;7.22;3.33;;;;;;;27.17;49.22;100582.03;4939547;29;20035;-71
2022/07/02 09:18:44;;;;;;;10.50;3.67;;;;;;;27.25;49.56;100567.38;4937247;29;20114;-70
2022/07/02 09:21:12;;;;;;;6.55;3.00;;;;;;;27.18;48.95;100561.81;4953076;29;20073;-72
2022/07/02 09:23:47;;;;;;;6.80;3.80;;;;;;;27.19;48.90;100574.47;4940819;29;20508;-72
2022/07/02 09:26:20;;;;;;;7.25;3.80;;;;;;;27.28;48.30;100577.94;4948718;29;20054;-70
2022/07/02 09:28:54;;;;;;;7.20;3.53;;;;;;;27.10;48.87;100553.72;4949641;29;20552;-69
2022/07/02 09:31:23;;;;;;;7.10;3.88;;;;;;;27.50;48.56;100557.75;4940592;29;20124;-73
2022/07/02 09:33:53;;;;;;;7.00;3.80;;;;;;;27.48;48.06;100564.47;4934458;29;20095;-76
2022/07/02 09:36:22;;;;;;;7.18;4.25;;;;;;;27.58;48.25;100565.84;4946140;29;20043;-71
2022/07/02 09:38:51;;;;;;;6.07;3.42;;;;;;;27.44;47.98;100560.44;4943815;29;20055;-71
2022/07/02 09:41:21;;;;;;;7.53;3.83;;;;;;;27.38;48.07;100562.88;4953304;29;20094;-70
2022/07/02 09:43:53;;;;;;;8.40;3.80;;;;;;;27.36;48.10;100578.69;4937021;29;20497;-71
2022/07/02 09:46:22;;;;;;;8.05;4.05;;;;;;;27.45;47.39;100573.06;4945713;28;20055;-72
2022/07/02 09:48:50;;;;;;;5.93;3.78;;;;;;;27.49;47.60;100564.25;4943059;29;20052;-71
2022/07/02 09:51:20;;;;;;;5.43;3.80;;;;;;;27.26;48.12;100569.91;4953393;29;20054;-72
2022/07/02 09:53:50;;;;;;;5.47;3.85;;;;;;;27.43;48.36;100565.06;4941600;29;20044;-70
2022/07/02 09:56:19;;;;;;;7.80;3.85;;;;;;;27.48;48.03;100578.16;4930923;29;20052;-73
2022/07/02 09:58:48;;;;;;;5.88;3.60;;;;;;;27.36;47.78;100564.97;4937038;29;20397;-71
2022/07/02 10:01:20;;;;;;;6.22;3.80;;;;;;;27.86;47.16;100571.41;4953099;29;20401;-72
2022/07/02 10:03:49;;;;;;;5.57;3.40;;;;;;;27.74;46.44;100567.50;4941413;29;20106;-71
2022/07/02 10:06:20;;;;;;;6.82;3.95;;;;;;;27.91;46.02;100579.91;4947890;29;20051;-82
2022/07/02 10:08:55;;;;;;;5.38;3.78;;;;;;;28.04;46.15;100570.94;4942826;29;20059;-71
2022/07/02 10:11:24;;;;;;;6.43;4.15;;;;;;;27.69;46.51;100574.59;4953599;29;20396;-71
2022/07/02 10:13:56;;;;;;;7.13;3.78;;;;;;;27.79;45.98;100575.97;4950460;29;20494;-70
2022/07/02 10:16:26;;;;;;;5.68;3.70;;;;;;;28.09;46.01;100581.31;4946012;29;20122;-71
2022/07/02 10:18:58;;;;;;;5.88;3.33;;;;;;;28.08;44.91;100557.66;4942873;29;20056;-71
2022/07/02 10:21:29;;;;;;;7.05;3.60;;;;;;;28.14;45.43;100567.84;4952465;29;20154;-71
2022/07/02 10:23:58;;;;;;;9.02;4.03;;;;;;;28.25;45.14;100575.53;4942051;29;20416;-71
2022/07/02 10:26:27;;;;;;;6.40;3.33;;;;;;;28.19;45.93;100570.84;4946023;29;20044;-71
2022/07/02 10:28:56;;;;;;;7.10;3.65;;;;;;;28.23;45.76;100559.28;4949513;29;20073;-69
2022/07/02 10:31:24;;;;;;;6.95;3.75;;;;;;;27.69;45.74;100575.44;4938228;29;20535;-71
2022/07/02 10:33:55;;;;;;;7.43;3.95;;;;;;;27.88;45.53;100561.09;4941328;29;20039;-71
2022/07/02 10:36:24;;;;;;;6.88;4.10;;;;;;;27.96;45.52;100571.06;4946430;29;20536;-71
2022/07/02 10:39:01;;;;;;;5.57;3.30;;;;;;;27.79;45.12;100573.22;4949319;29;20054;-72
2022/07/02 10:41:31;;;;;;;5.47;3.50;;;;;;;27.86;45.32;100571.41;4939334;29;20059;-71
2022/07/02 10:44:00;;;;;;;7.57;3.60;;;;;;;27.88;45.01;100562.97;4947575;29;20070;-71
2022/07/02 10:46:35;;;;;;;6.57;3.70;;;;;;;28.02;44.52;100556.59;4945321;29;20095;-72
2022/07/02 10:49:05;;;;;;;6.22;3.63;;;;;;;28.26;44.45;100557.16;4950694;29;20047;-73
2022/07/02 10:51:35;;;;;;;7.45;3.55;;;;;;;28.26;45.03;100565.41;4939278;29;20098;-72
2022/07/02 10:54:06;;;;;;;6.85;3.55;;;;;;;28.28;44.76;100553.22;4948995;29;20067;-71
2022/07/02 10:56:44;;;;;;;5.72;3.30;;;;;;;28.57;44.04;100549.41;4946225;29;20043;-71
2022/07/02 10:59:20;;;;;;;5.63;3.33;;;;;;;28.63;44.36;100545.00;4938493;29;20051;-74
2022/07/02 11:02:00;;;;;;;4.68;3.42;;;;;;;28.55;43.78;100547.91;4940550;29;20039;-71
2022/07/02 11:04:28;;;;;;;5.18;3.40;;;;;;;28.20;44.29;100548.72;4945310;29;20043;-71
2022/07/02 11:07:07;;;;;;;5.35;3.30;;;;;;;28.45;44.26;100553.75;4949054;29;20054;-71
2022/07/02 11:09:47;;;;;;;5.88;3.60;;;;;;;28.34;43.92;100559.78;4938998;29;20062;-71
2022/07/02 11:12:20;;;;;;;7.55;3.83;;;;;;;28.08;44.58;100557.66;4946982;29;20059;-71
2022/07/02 11:14:54;;;;;;;6.07;3.80;;;;;;;28.35;44.50;100548.63;4931236;29;20047;-70
2022/07/02 11:17:48;;;;;;;6.50;3.63;;;;;;;28.30;43.88;100548.38;4935599;29;20055;-70
2022/07/02 11:20:23;;;;;;;7.32;3.58;;;;;;;28.71;43.77;100555.81;4926739;29;20047;-76
2022/07/02 11:22:51;;;;;;;7.03;3.70;;;;;;;28.66;43.38;100550.06;4956789;28;20404;-77
2022/07/02 11:25:23;;;;;;;5.85;3.08;;;;;;;28.82;42.80;100544.25;4947969;29;20055;-71
2022/07/02 11:28:02;;;;;;;7.38;3.38;;;;;;;28.97;41.73;100550.47;4959652;28;20058;-72
2022/07/02 11:30:32;;;;;;;6.88;3.50;;;;;;;28.62;42.65;100548.78;4952405;28;20051;-73
2022/07/02 11:33:01;;;;;;;5.40;3.30;;;;;;;28.48;42.84;100570.66;4962759;28;20046;-71
2022/07/02 11:35:29;;;;;;;6.25;3.45;;;;;;;28.75;42.87;100546.94;4954064;28;20085;-72
2022/07/02 11:37:58;;;;;;;5.93;3.20;;;;;;;28.80;42.65;100554.59;4941168;29;20551;-72
2022/07/02 11:40:28;;;;;;;8.40;3.60;;;;;;;29.04;42.29;100536.75;4944731;29;20048;-71
2022/07/02 11:42:56;;;;;;;4.57;3.22;;;;;;;28.91;42.77;100537.56;4931277;29;20047;-72